Time;durP1;ratioP1;P1;durP2;ratioP2;P2;SDS_P1;SDS_P2;PMS_P1;PMS_P2;Temp;Humidity;BMP_temperature;BMP_pressure;BME280_temperature;BME280_humidity;BME280_pressure;Samples;Min_cycle;Max_cycle;Signal;HPM_P1;HPM_P2
2022/09/16 00:01:56;;;;;;;4.32;2.25;;;;;;;;;;5027870;28;20064;-87
2022/09/16 00:04:21;;;;;;;5.28;2.33;;;;;;;;;;5026701;28;20034;-86
2022/09/16 00:06:47;;;;;;;4.65;2.17;;;;;;;;;;5025905;28;20026;-86
2022/09/16 00:09:12;;;;;;;2.90;2.20;;;;;;;;;;5025442;28;20086;-86
2022/09/16 00:11:38;;;;;;;3.70;2.00;;;;;;;;;;5024414;28;20093;-86
2022/09/16 00:14:04;;;;;;;3.17;2.20;;;;;;;;;;5025900;28;20061;-86
2022/09/16 00:16:29;;;;;;;4.30;2.10;;;;;;;;;;5026258;28;20042;-86
2022/09/16 00:18:57;;;;;;;6.15;2.30;;;;;;;;;;5026572;28;20041;-86
2022/09/16 00:21:23;;;;;;;2.88;1.90;;;;;;;;;;5027289;28;20038;-86
2022/09/16 00:23:49;;;;;;;3.45;2.10;;;;;;;;;;5025577;28;20561;-85
2022/09/16 00:26:15;;;;;;;3.80;2.30;;;;;;;;;;5025510;28;20162;-86
2022/09/16 00:28:40;;;;;;;4.80;2.17;;;;;;;;;;5026441;28;20042;-86
2022/09/16 00:31:06;;;;;;;4.10;1.92;;;;;;;;;;5027124;28;20089;-86
2022/09/16 00:33:32;;;;;;;6.32;2.22;;;;;;;;;;5026501;28;20081;-86
2022/09/16 00:36:24;;;;;;;3.78;2.20;;;;;;;;;;5026191;28;20052;-86
2022/09/16 00:38:51;;;;;;;3.92;2.22;;;;;;;;;;5021980;28;20056;-86
2022/09/16 00:41:20;;;;;;;4.18;2.40;;;;;;;;;;5025341;28;20026;-87
2022/09/16 00:43:56;;;;;;;5.07;2.50;;;;;;;;;;5026045;28;20034;-86
2022/09/16 00:46:25;;;;;;;6.00;2.55;;;;;;;;;;5027492;28;20075;-86
2022/09/16 00:48:51;;;;;;;3.75;2.60;;;;;;;;;;5026696;28;20037;-86
2022/09/16 00:51:19;;;;;;;4.60;2.55;;;;;;;;;;5027071;28;20040;-86
2022/09/16 00:54:04;;;;;;;4.85;2.47;;;;;;;;;;5041945;28;20046;-86
2022/09/16 00:56:36;;;;;;;5.30;2.63;;;;;;;;;;5026510;28;20061;-86
2022/09/16 00:59:09;;;;;;;7.90;2.75;;;;;;;;;;5026052;28;20052;-86
2022/09/16 01:01:37;;;;;;;5.30;2.80;;;;;;;;;;5026323;28;20038;-86
2022/09/16 01:04:12;;;;;;;4.13;2.50;;;;;;;;;;5026044;28;20046;-86
2022/09/16 01:06:38;;;;;;;2.90;2.30;;;;;;;;;;5025679;28;20061;-85
2022/09/16 01:09:04;;;;;;;2.83;2.35;;;;;;;;;;5041751;28;20052;-86
2022/09/16 01:11:31;;;;;;;6.15;2.45;;;;;;;;;;5025236;28;20518;-87
2022/09/16 01:14:51;;;;;;;4.53;2.40;;;;;;;;;;5026025;28;20045;-84
2022/09/16 01:16:57;;;;;;;4.05;2.65;;;;;;;;;;5025558;28;20041;-86
2022/09/16 01:19:43;;;;;;;3.50;2.50;;;;;;;;;;5024684;28;20045;-86
2022/09/16 01:22:37;;;;;;;5.30;2.72;;;;;;;;;;5028948;28;20438;-86
2022/09/16 01:25:09;;;;;;;3.75;2.50;;;;;;;;;;5020406;28;20049;-86
2022/09/16 01:28:01;;;;;;;3.90;2.50;;;;;;;;;;5030083;28;20379;-86
2022/09/16 01:31:00;;;;;;;3.60;2.33;;;;;;;;;;5030283;28;20128;-86
2022/09/16 01:33:43;;;;;;;4.82;2.40;;;;;;;;;;5028854;28;20041;-86
2022/09/16 01:36:29;;;;;;;3.78;2.42;;;;;;;;;;5029063;28;20376;-86
2022/09/16 01:39:14;;;;;;;4.95;2.60;;;;;;;;;;5029534;28;20046;-86
2022/09/16 01:41:47;;;;;;;3.85;2.40;;;;;;;;;;5029071;28;20041;-87
2022/09/16 01:44:22;;;;;;;;;;;;;;;;;;5045574;28;20042;-86
2022/09/16 01:47:03;;;;;;;4.47;2.30;;;;;;;;;;5028457;28;20004;-87
2022/09/16 01:49:38;;;;;;;4.57;2.45;;;;;;;;;;5029604;28;20064;-86
2022/09/16 01:52:22;;;;;;;3.58;2.42;;;;;;;;;;5029423;28;20097;-86
2022/09/16 01:54:53;;;;;;;3.28;2.10;;;;;;;;;;5028913;28;20026;-85
2022/09/16 01:57:33;;;;;;;4.47;2.50;;;;;;;;;;5028901;28;20094;-86
2022/09/16 01:59:59;;;;;;;5.10;2.30;;;;;;;;;;5029503;28;20044;-86
2022/09/16 02:02:43;;;;;;;6.20;2.60;;;;;;;;;;5029450;28;20093;-86
2022/09/16 02:05:15;;;;;;;3.35;2.30;;;;;;;;;;5027595;28;20033;-86
2022/09/16 02:07:46;;;;;;;4.45;2.42;;;;;;;;;;5027772;28;20112;-87
2022/09/16 02:10:23;;;;;;;4.18;2.30;;;;;;;;;;5029643;28;20033;-86
2022/09/16 02:12:52;;;;;;;4.55;2.50;;;;;;;;;;5028162;28;20126;-87
2022/09/16 02:15:21;;;;;;;3.35;2.50;;;;;;;;;;5028438;28;20049;-86
2022/09/16 02:18:10;;;;;;;3.72;2.55;;;;;;;;;;5028941;28;20033;-86
2022/09/16 02:20:41;;;;;;;4.45;2.70;;;;;;;;;;5027583;28;20052;-86
2022/09/16 02:23:13;;;;;;;7.40;2.50;;;;;;;;;;5029041;28;20038;-86
2022/09/16 02:25:42;;;;;;;6.35;2.75;;;;;;;;;;5027727;28;20053;-86
2022/09/16 02:28:14;;;;;;;4.03;2.58;;;;;;;;;;5028732;28;20033;-86
2022/09/16 02:30:49;;;;;;;4.28;2.83;;;;;;;;;;5029001;28;20060;-86
2022/09/16 02:33:16;;;;;;;5.90;2.75;;;;;;;;;;5043144;28;20029;-86
2022/09/16 02:35:46;;;;;;;3.90;2.67;;;;;;;;;;5027855;28;20060;-86
2022/09/16 02:38:35;;;;;;;3.60;2.75;;;;;;;;;;5027131;28;20124;-85
2022/09/16 02:41:01;;;;;;;4.30;2.67;;;;;;;;;;5028196;28;20578;-86
2022/09/16 02:43:28;;;;;;;4.45;2.83;;;;;;;;;;5027199;28;20037;-85
2022/09/16 02:46:15;;;;;;;3.58;2.90;;;;;;;;;;5028181;28;20049;-87
2022/09/16 02:48:49;;;;;;;6.25;2.95;;;;;;;;;;5028012;28;20061;-85
2022/09/16 02:51:27;;;;;;;7.05;3.08;;;;;;;;;;5026611;28;20041;-85
2022/09/16 02:54:05;;;;;;;5.38;2.80;;;;;;;;;;5028218;28;20053;-86
2022/09/16 02:56:35;;;;;;;4.68;2.67;;;;;;;;;;5028898;28;20042;-85
2022/09/16 02:59:04;;;;;;;4.38;3.03;;;;;;;;;;5028440;28;20044;-85
2022/09/16 03:01:32;;;;;;;4.57;2.53;;;;;;;;;;5028892;28;20068;-86
2022/09/16 03:03:58;;;;;;;5.45;2.80;;;;;;;;;;5009427;28;20060;-85
2022/09/16 03:06:25;;;;;;;4.20;2.97;;;;;;;;;;5027788;28;20479;-85
2022/09/16 03:08:54;;;;;;;5.75;2.80;;;;;;;;;;5011199;28;20101;-86
2022/09/16 03:11:20;;;;;;;5.32;3.05;;;;;;;;;;5027439;28;20109;-87
2022/09/16 03:14:05;;;;;;;6.05;3.20;;;;;;;;;;5027761;28;20483;-86
2022/09/16 03:16:45;;;;;;;6.07;3.00;;;;;;;;;;5028444;28;20047;-86
2022/09/16 03:19:29;;;;;;;3.28;2.97;;;;;;;;;;5042852;28;20044;-86
2022/09/16 03:22:05;;;;;;;4.47;2.90;;;;;;;;;;5028447;28;20048;-86
2022/09/16 03:24:48;;;;;;;4.20;2.72;;;;;;;;;;5027058;28;20063;-86
2022/09/16 03:27:19;;;;;;;5.20;2.72;;;;;;;;;;5027508;28;20523;-86
2022/09/16 03:29:50;;;;;;;3.58;2.60;;;;;;;;;;5027184;28;20038;-86
2022/09/16 03:32:29;;;;;;;5.10;3.00;;;;;;;;;;5028205;28;20033;-86
2022/09/16 03:35:07;;;;;;;4.15;2.80;;;;;;;;;;5027563;28;20069;-86
2022/09/16 03:37:35;;;;;;;4.38;3.00;;;;;;;;;;5041592;28;20042;-86
2022/09/16 03:40:10;;;;;;;4.53;2.90;;;;;;;;;;5026489;28;20049;-86
2022/09/16 03:42:40;;;;;;;4.32;2.60;;;;;;;;;;5027497;28;20022;-86
2022/09/16 03:45:07;;;;;;;4.95;2.80;;;;;;;;;;5026560;28;20081;-86
2022/09/16 03:47:33;;;;;;;4.45;2.78;;;;;;;;;;5027414;28;20024;-85
2022/09/16 03:49:58;;;;;;;3.83;2.72;;;;;;;;;;5025628;28;20069;-86
2022/09/16 03:52:24;;;;;;;4.90;2.92;;;;;;;;;;5027300;28;20058;-86
2022/09/16 03:54:49;;;;;;;5.40;2.70;;;;;;;;;;5026677;28;20175;-86
2022/09/16 03:57:15;;;;;;;3.78;2.65;;;;;;;;;;5027702;28;20038;-86
2022/09/16 03:59:40;;;;;;;5.47;2.90;;;;;;;;;;5026968;28;20088;-86
2022/09/16 04:02:06;;;;;;;6.38;2.97;;;;;;;;;;5026386;28;20096;-85
2022/09/16 04:04:32;;;;;;;4.68;3.22;;;;;;;;;;5041925;28;20026;-85
2022/09/16 04:06:57;;;;;;;3.65;2.90;;;;;;;;;;5025018;28;20037;-86
2022/09/16 04:09:22;;;;;;;4.47;3.08;;;;;;;;;;5026819;28;20042;-85
2022/09/16 04:11:48;;;;;;;5.30;3.17;;;;;;;;;;5026348;28;20042;-86
2022/09/16 04:14:14;;;;;;;4.18;3.00;;;;;;;;;;5026401;28;20034;-86
2022/09/16 04:16:40;;;;;;;5.05;2.80;;;;;;;;;;5025789;28;20037;-86
2022/09/16 04:19:06;;;;;;;4.80;3.33;;;;;;;;;;5026575;28;20037;-85
2022/09/16 04:21:31;;;;;;;4.75;3.03;;;;;;;;;;5027026;28;20061;-84
2022/09/16 04:23:57;;;;;;;8.00;3.60;;;;;;;;;;5025792;28;20058;-84
2022/09/16 04:26:22;;;;;;;4.45;3.10;;;;;;;;;;5025657;28;20033;-86
2022/09/16 04:28:51;;;;;;;8.77;3.83;;;;;;;;;;5025682;28;20037;-86
2022/09/16 04:31:16;;;;;;;4.10;3.13;;;;;;;;;;5025984;28;20392;-86
2022/09/16 04:33:42;;;;;;;4.25;3.20;;;;;;;;;;5025963;28;20030;-86
2022/09/16 04:36:13;;;;;;;4.70;3.58;;;;;;;;;;5026156;28;20034;-86
2022/09/16 04:38:44;;;;;;;4.97;3.45;;;;;;;;;;5027045;28;20098;-85
2022/09/16 04:41:20;;;;;;;7.28;3.50;;;;;;;;;;5026576;28;20037;-85
2022/09/16 04:43:51;;;;;;;6.57;3.67;;;;;;;;;;5026785;28;20037;-85
2022/09/16 04:46:17;;;;;;;5.43;3.80;;;;;;;;;;5025757;28;20112;-86
2022/09/16 04:48:46;;;;;;;4.95;4.07;;;;;;;;;;5026878;28;20041;-84
2022/09/16 04:51:12;;;;;;;6.13;3.60;;;;;;;;;;5026596;28;20038;-86
2022/09/16 04:53:39;;;;;;;5.78;3.70;;;;;;;;;;5024077;28;20040;-86
2022/09/16 04:56:25;;;;;;;6.18;3.90;;;;;;;;;;5025848;28;20090;-85
2022/09/16 04:58:53;;;;;;;10.68;4.07;;;;;;;;;;5031254;28;20030;-85
2022/09/16 05:01:21;;;;;;;5.15;4.20;;;;;;;;;;5031049;28;20104;-86
2022/09/16 05:03:49;;;;;;;5.45;4.15;;;;;;;;;;5030487;28;20038;-86
2022/09/16 05:06:19;;;;;;;7.47;4.25;;;;;;;;;;5029092;28;20038;-86
2022/09/16 05:08:45;;;;;;;6.85;4.40;;;;;;;;;;5030352;28;20083;-86
2022/09/16 05:11:13;;;;;;;6.75;4.10;;;;;;;;;;5029468;28;20449;-86
2022/09/16 05:13:40;;;;;;;8.40;4.10;;;;;;;;;;5031426;28;20065;-86
2022/09/16 05:16:09;;;;;;;6.00;3.85;;;;;;;;;;5030611;28;20038;-85
2022/09/16 05:18:36;;;;;;;8.23;4.88;;;;;;;;;;5031305;28;20040;-86
2022/09/16 05:21:04;;;;;;;9.52;4.82;;;;;;;;;;5031151;28;20033;-86
2022/09/16 05:23:31;;;;;;;5.28;4.05;;;;;;;;;;5031900;28;20116;-86
2022/09/16 05:26:05;;;;;;;6.05;4.35;;;;;;;;;;5030941;28;20029;-86
2022/09/16 05:28:31;;;;;;;5.50;4.00;;;;;;;;;;5030171;28;20117;-86
2022/09/16 05:31:17;;;;;;;11.15;5.97;;;;;;;;;;5031309;28;20030;-86
2022/09/16 05:33:52;;;;;;;12.45;5.35;;;;;;;;;;5031445;28;20038;-86
2022/09/16 05:36:17;;;;;;;6.10;3.90;;;;;;;;;;5030627;28;20106;-86
2022/09/16 05:38:44;;;;;;;7.97;4.35;;;;;;;;;;5031511;28;20056;-85
2022/09/16 05:41:10;;;;;;;9.23;4.55;;;;;;;;;;5030802;28;20041;-86
2022/09/16 05:43:36;;;;;;;7.40;4.47;;;;;;;;;;5031684;28;20037;-85
2022/09/16 05:46:03;;;;;;;6.88;4.18;;;;;;;;;;5045301;28;20053;-87
2022/09/16 05:48:29;;;;;;;7.30;4.10;;;;;;;;;;5031135;28;20048;-86
2022/09/16 05:50:57;;;;;;;7.40;4.50;;;;;;;;;;5030800;28;20061;-86
2022/09/16 05:53:24;;;;;;;6.25;3.90;;;;;;;;;;5030771;28;20029;-86
2022/09/16 05:55:55;;;;;;;6.60;3.72;;;;;;;;;;5030394;28;20033;-86
2022/09/16 05:58:21;;;;;;;5.15;3.42;;;;;;;;;;5027331;28;20068;-86
2022/09/16 06:00:46;;;;;;;7.50;4.20;;;;;;;;;;5027277;28;20034;-86
2022/09/16 06:03:12;;;;;;;8.25;3.88;;;;;;;;;;5027485;28;20060;-86
2022/09/16 06:05:38;;;;;;;5.68;3.80;;;;;;;;;;5028593;28;20037;-85
2022/09/16 06:08:03;;;;;;;7.18;3.60;;;;;;;;;;5037235;28;20047;-86
2022/09/16 06:10:29;;;;;;;5.95;3.80;;;;;;;;;;5039368;28;20038;-85
2022/09/16 06:12:57;;;;;;;7.25;4.10;;;;;;;;;;5022239;28;20121;-86
2022/09/16 06:15:23;;;;;;;9.65;4.38;;;;;;;;;;5024881;28;20422;-86
2022/09/16 06:17:48;;;;;;;6.53;3.90;;;;;;;;;;5023449;28;20045;-85
2022/09/16 06:20:14;;;;;;;6.15;3.80;;;;;;;;;;5027446;28;20111;-84
2022/09/16 06:22:40;;;;;;;7.35;4.10;;;;;;;;;;5025199;28;20025;-85
2022/09/16 06:25:06;;;;;;;8.05;4.15;;;;;;;;;;5026369;28;20036;-85
2022/09/16 06:27:32;;;;;;;6.97;3.72;;;;;;;;;;5025620;28;20026;-86
2022/09/16 06:29:57;;;;;;;5.20;3.35;;;;;;;;;;5024340;28;20525;-86
2022/09/16 06:32:23;;;;;;;4.32;3.42;;;;;;;;;;5023203;28;20033;-85
2022/09/16 06:34:49;;;;;;;5.68;3.80;;;;;;;;;;5038199;28;20089;-86
2022/09/16 06:37:15;;;;;;;6.93;3.72;;;;;;;;;;5021120;28;20034;-83
2022/09/16 06:39:41;;;;;;;6.60;4.03;;;;;;;;;;5021495;28;20394;-84
2022/09/16 06:42:07;;;;;;;6.07;3.88;;;;;;;;;;5021367;28;20034;-84
2022/09/16 06:44:39;;;;;;;7.50;3.55;;;;;;;;;;5019718;28;20541;-85
2022/09/16 06:47:04;;;;;;;7.05;3.45;;;;;;;;;;5021551;28;20036;-85
2022/09/16 06:49:30;;;;;;;6.70;3.53;;;;;;;;;;5019794;28;20029;-84
2022/09/16 06:51:55;;;;;;;5.38;3.58;;;;;;;;;;5020638;28;20038;-85
2022/09/16 06:54:21;;;;;;;7.88;3.95;;;;;;;;;;5020652;28;20049;-85
2022/09/16 06:56:46;;;;;;;4.82;3.65;;;;;;;;;;5021017;28;20040;-86
2022/09/16 06:59:13;;;;;;;5.53;3.67;;;;;;;;;;5021330;28;20564;-85
2022/09/16 07:01:39;;;;;;;5.18;3.70;;;;;;;;;;5036413;28;20030;-85
2022/09/16 07:04:09;;;;;;;6.53;3.50;;;;;;;;;;5019940;28;20045;-85
2022/09/16 07:06:35;;;;;;;5.50;3.55;;;;;;;;;;5020565;28;20034;-84
2022/09/16 07:09:01;;;;;;;6.43;3.53;;;;;;;;;;5035852;28;20048;-86
2022/09/16 07:11:26;;;;;;;6.25;3.03;;;;;;;;;;5017901;28;20038;-86
2022/09/16 07:13:53;;;;;;;7.13;3.53;;;;;;;;;;5020891;28;20049;-85
2022/09/16 07:16:24;;;;;;;5.03;3.60;;;;;;;;;;5034932;28;20061;-86
2022/09/16 07:18:54;;;;;;;6.70;3.45;;;;;;;;;;5002053;28;20128;-86
2022/09/16 07:21:23;;;;;;;4.80;3.70;;;;;;;;;;5021718;28;20037;-86
2022/09/16 07:23:49;;;;;;;6.85;4.30;;;;;;;;;;5024985;28;20154;-84
2022/09/16 07:26:16;;;;;;;6.60;3.63;;;;;;;;;;5022450;28;20045;-86
2022/09/16 07:28:45;;;;;;;7.32;3.55;;;;;;;;;;5035266;28;20029;-87
2022/09/16 07:31:13;;;;;;;5.57;3.97;;;;;;;;;;5021255;28;20060;-85
2022/09/16 07:33:41;;;;;;;5.82;3.72;;;;;;;;;;5023485;28;20042;-86
2022/09/16 07:36:08;;;;;;;5.57;3.63;;;;;;;;;;5026644;28;20133;-87
2022/09/16 07:38:34;;;;;;;7.22;4.85;;;;;;;;;;5026111;28;20042;-87
2022/09/16 07:41:08;;;;;;;9.75;5.45;;;;;;;;;;5026537;28;20034;-86
2022/09/16 07:43:33;;;;;;;7.88;3.75;;;;;;;;;;5027043;28;20034;-85
2022/09/16 07:45:59;;;;;;;4.57;3.20;;;;;;;;;;5025117;28;20032;-87
2022/09/16 07:48:27;;;;;;;5.85;3.50;;;;;;;;;;5025978;28;20101;-87
2022/09/16 07:51:07;;;;;;;8.10;3.38;;;;;;;;;;5025525;28;20033;-87
2022/09/16 07:53:33;;;;;;;5.72;3.38;;;;;;;;;;5025484;28;20064;-86
2022/09/16 07:56:10;;;;;;;4.50;3.15;;;;;;;;;;5025915;28;20034;-87
2022/09/16 07:58:37;;;;;;;4.13;3.20;;;;;;;;;;5025157;28;20042;-87
2022/09/16 08:01:04;;;;;;;8.05;3.65;;;;;;;;;;5025368;28;20053;-86
2022/09/16 08:03:31;;;;;;;5.05;3.30;;;;;;;;;;5024471;28;20053;-85
2022/09/16 08:06:05;;;;;;;5.70;3.28;;;;;;;;;;5023640;28;20030;-86
2022/09/16 08:08:31;;;;;;;5.88;3.60;;;;;;;;;;5022696;28;20071;-85
2022/09/16 08:10:58;;;;;;;3.88;3.28;;;;;;;;;;5037543;28;20037;-86
2022/09/16 08:13:26;;;;;;;4.55;3.15;;;;;;;;;;5024315;28;20044;-88
2022/09/16 08:15:52;;;;;;;4.75;3.50;;;;;;;;;;5025843;28;20029;-85
2022/09/16 08:18:18;;;;;;;4.13;3.15;;;;;;;;;;5022278;28;20034;-86
2022/09/16 08:20:44;;;;;;;6.90;3.08;;;;;;;;;;5022452;28;20502;-85
2022/09/16 08:23:09;;;;;;;4.38;3.15;;;;;;;;;;5025985;28;20133;-85
2022/09/16 08:25:35;;;;;;;5.38;3.13;;;;;;;;;;5016563;28;20042;-85
2022/09/16 08:28:02;;;;;;;5.78;3.15;;;;;;;;;;5015891;28;20147;-85
2022/09/16 08:30:27;;;;;;;6.07;3.20;;;;;;;;;;5015587;28;20042;-87
2022/09/16 08:32:57;;;;;;;5.05;3.28;;;;;;;;;;5018066;28;20045;-85
2022/09/16 08:35:32;;;;;;;4.13;3.08;;;;;;;;;;5016355;28;20038;-84
2022/09/16 08:37:58;;;;;;;9.30;4.20;;;;;;;;;;5023288;28;20080;-84
2022/09/16 08:40:26;;;;;;;7.10;3.45;;;;;;;;;;5022876;28;20046;-85
2022/09/16 08:43:03;;;;;;;5.28;3.17;;;;;;;;;;5018878;28;20033;-84
2022/09/16 08:45:45;;;;;;;6.03;3.47;;;;;;;;;;5015298;28;20034;-84
2022/09/16 08:48:50;;;;;;;6.07;3.55;;;;;;;;;;5016265;28;20095;-84
2022/09/16 08:51:18;;;;;;;5.80;3.58;;;;;;;;;;5015753;28;20061;-85
2022/09/16 08:53:55;;;;;;;5.20;3.55;;;;;;;;;;5016866;28;20124;-85
2022/09/16 08:56:23;;;;;;;4.07;3.35;;;;;;;;;;5015333;28;20041;-85
2022/09/16 08:58:53;;;;;;;5.97;3.40;;;;;;;;;;5015681;28;20555;-84
2022/09/16 09:01:41;;;;;;;7.45;3.65;;;;;;;;;;5015471;28;20505;-85
2022/09/16 09:04:07;;;;;;;5.80;3.45;;;;;;;;;;5015867;28;20033;-85
2022/09/16 09:06:54;;;;;;;8.70;3.13;;;;;;;;;;5016642;28;20170;-84
2022/09/16 09:09:35;;;;;;;5.75;3.70;;;;;;;;;;5032344;28;20123;-85
2022/09/16 09:12:42;;;;;;;6.35;3.55;;;;;;;;;;5016371;28;20040;-84
2022/09/16 09:15:22;;;;;;;5.70;3.33;;;;;;;;;;4955462;29;20523;-85
2022/09/16 09:17:59;;;;;;;7.80;3.47;;;;;;;;;;4956122;29;20043;-85
2022/09/16 09:20:46;;;;;;;9.45;3.72;;;;;;;;;;4997030;28;20499;-85
2022/09/16 09:23:17;;;;;;;5.53;3.65;;;;;;;;;;5017343;28;20034;-85
2022/09/16 09:26:06;;;;;;;4.72;3.10;;;;;;;;;;5031711;28;20410;-85
2022/09/16 09:28:49;;;;;;;6.97;3.17;;;;;;;;;;4979139;28;20046;-85
2022/09/16 09:31:28;;;;;;;6.18;3.25;;;;;;;;;;5017078;28;20030;-85
2022/09/16 09:34:33;;;;;;;4.47;3.20;;;;;;;;;;5015123;28;20053;-85
2022/09/16 09:37:17;;;;;;;6.22;2.95;;;;;;;;;;5016048;28;20030;-85
2022/09/16 09:39:53;;;;;;;6.78;3.65;;;;;;;;;;5017055;28;20042;-85
2022/09/16 09:42:42;;;;;;;5.13;3.50;;;;;;;;;;5033391;28;20121;-85
2022/09/16 09:45:11;;;;;;;6.63;3.50;;;;;;;;;;5020429;28;20034;-85
2022/09/16 09:47:44;;;;;;;8.05;3.42;;;;;;;;;;5021305;28;20026;-85
2022/09/16 09:50:35;;;;;;;7.32;3.58;;;;;;;;;;5021258;28;20042;-86
2022/09/16 09:53:10;;;;;;;5.90;3.22;;;;;;;;;;5020796;28;20495;-85
2022/09/16 09:55:36;;;;;;;4.38;3.10;;;;;;;;;;5020299;28;20034;-85
2022/09/16 09:58:05;;;;;;;4.93;3.10;;;;;;;;;;5020651;28;20080;-86
2022/09/16 10:00:31;;;;;;;7.57;3.35;;;;;;;;;;5018910;28;20046;-85
2022/09/16 10:03:11;;;;;;;4.82;3.00;;;;;;;;;;5019788;28;20044;-86
2022/09/16 10:05:37;;;;;;;6.88;3.10;;;;;;;;;;5020166;28;20395;-88
2022/09/16 10:08:23;;;;;;;5.32;3.00;;;;;;;;;;5019589;28;20471;-85
2022/09/16 10:10:52;;;;;;;6.25;3.03;;;;;;;;;;5018411;28;20044;-86
2022/09/16 10:13:19;;;;;;;4.70;2.70;;;;;;;;;;5019844;28;20033;-85
2022/09/16 10:15:47;;;;;;;4.45;2.42;;;;;;;;;;5017077;28;20474;-85
2022/09/16 10:18:32;;;;;;;6.18;2.70;;;;;;;;;;5019177;28;20105;-85
2022/09/16 10:21:03;;;;;;;5.15;3.03;;;;;;;;;;5019783;28;20499;-85
2022/09/16 10:23:29;;;;;;;3.63;2.72;;;;;;;;;;5020073;28;20037;-86
2022/09/16 10:26:26;;;;;;;5.15;2.65;;;;;;;;;;5018155;28;20030;-84
2022/09/16 10:28:54;;;;;;;7.78;3.70;;;;;;;;;;5007579;28;20064;-85
2022/09/16 10:31:20;;;;;;;5.43;2.85;;;;;;;;;;5007997;28;20034;-84
2022/09/16 10:33:46;;;;;;;4.72;2.50;;;;;;;;;;4999808;28;20030;-84
2022/09/16 10:36:25;;;;;;;7.15;2.90;;;;;;;;;;4996345;28;20061;-85
2022/09/16 10:38:59;;;;;;;4.18;2.70;;;;;;;;;;5000508;28;20042;-85
2022/09/16 10:41:41;;;;;;;5.07;2.92;;;;;;;;;;4999931;28;20042;-85
2022/09/16 10:44:16;;;;;;;3.67;2.30;;;;;;;;;;4999093;28;20053;-84
2022/09/16 10:46:51;;;;;;;5.22;3.20;;;;;;;;;;5000197;28;20545;-85
2022/09/16 10:49:21;;;;;;;6.25;3.90;;;;;;;;;;5000381;28;20042;-85
2022/09/16 10:51:47;;;;;;;5.75;3.83;;;;;;;;;;5000196;28;20077;-86
2022/09/16 10:54:24;;;;;;;6.85;4.22;;;;;;;;;;4998867;28;20038;-85
2022/09/16 10:56:50;;;;;;;7.40;3.92;;;;;;;;;;4999166;28;20031;-84
2022/09/16 10:59:16;;;;;;;11.85;3.65;;;;;;;;;;4999305;28;20030;-85
2022/09/16 11:02:21;;;;;;;7.55;4.15;;;;;;;;;;5007382;28;20036;-85
2022/09/16 11:05:02;;;;;;;6.18;4.00;;;;;;;;;;4968134;28;20109;-87
2022/09/16 11:07:45;;;;;;;8.00;5.28;;;;;;;;;;5005744;28;20309;-86
2022/09/16 11:10:41;;;;;;;7.70;5.13;;;;;;;;;;5005023;28;20045;-86
2022/09/16 11:13:43;;;;;;;9.73;6.05;;;;;;;;;;5000945;28;20061;-85
2022/09/16 11:16:14;;;;;;;9.70;6.13;;;;;;;;;;4997869;28;20042;-84
2022/09/16 11:18:58;;;;;;;8.35;5.90;;;;;;;;;;5012467;28;20081;-84
2022/09/16 11:21:32;;;;;;;10.52;6.53;;;;;;;;;;4998668;28;20442;-84
2022/09/16 11:24:04;;;;;;;9.90;6.65;;;;;;;;;;4997091;28;20066;-83
2022/09/16 11:26:43;;;;;;;10.55;6.90;;;;;;;;;;4998910;28;20052;-84
2022/09/16 11:29:09;;;;;;;11.02;7.55;;;;;;;;;;5013475;28;20041;-84
2022/09/16 11:31:52;;;;;;;13.10;7.97;;;;;;;;;;4998261;28;20034;-84
2022/09/16 11:34:42;;;;;;;11.32;7.25;;;;;;;;;;4997479;28;20069;-84
2022/09/16 11:37:44;;;;;;;12.45;8.02;;;;;;;;;;5000361;28;20043;-84
2022/09/16 11:40:31;;;;;;;14.18;8.07;;;;;;;;;;5012905;28;20519;-85
2022/09/16 11:43:32;;;;;;;10.95;7.22;;;;;;;;;;4996956;28;20046;-84
2022/09/16 11:46:25;;;;;;;10.90;7.60;;;;;;;;;;4983623;28;20380;-84
2022/09/16 11:49:04;;;;;;;13.73;7.25;;;;;;;;;;5012631;28;20037;-84
2022/09/16 11:51:50;;;;;;;11.88;7.55;;;;;;;;;;4997847;28;20454;-84
2022/09/16 11:54:36;;;;;;;9.45;6.95;;;;;;;;;;4996513;28;20046;-86
2022/09/16 11:57:07;;;;;;;10.93;6.35;;;;;;;;;;5012838;28;20043;-84
2022/09/16 11:59:45;;;;;;;8.55;6.75;;;;;;;;;;4997444;28;20040;-85
2022/09/16 12:02:26;;;;;;;9.55;6.20;;;;;;;;;;4998706;28;20045;-84
2022/09/16 12:05:10;;;;;;;12.60;6.20;;;;;;;;;;4998062;28;20108;-85
2022/09/16 12:07:41;;;;;;;10.70;6.22;;;;;;;;;;4998251;28;20391;-88
2022/09/16 12:10:27;;;;;;;8.98;6.07;;;;;;;;;;4996254;28;20038;-84
2022/09/16 12:13:00;;;;;;;8.73;5.97;;;;;;;;;;5005071;28;20045;-84
2022/09/16 12:15:47;;;;;;;8.35;6.00;;;;;;;;;;5021351;28;20034;-86
2022/09/16 12:18:20;;;;;;;8.20;5.57;;;;;;;;;;5002883;28;20407;-83
2022/09/16 12:20:50;;;;;;;9.48;4.78;;;;;;;;;;5006281;28;20038;-83
2022/09/16 12:23:23;;;;;;;8.20;5.38;;;;;;;;;;5006218;28;20034;-84
2022/09/16 12:26:04;;;;;;;14.60;6.15;;;;;;;;;;5003699;28;20038;-83
2022/09/16 12:28:36;;;;;;;9.07;6.13;;;;;;;;;;5009236;28;20461;-83
2022/09/16 12:31:41;;;;;;;8.93;5.78;;;;;;;;;;5000298;28;20456;-84
2022/09/16 12:34:09;;;;;;;9.82;5.43;;;;;;;;;;4986068;28;20133;-84
2022/09/16 12:36:38;;;;;;;10.57;6.63;;;;;;;;;;4998330;28;20037;-84
2022/09/16 12:39:04;;;;;;;8.27;4.97;;;;;;;;;;4997770;28;20085;-84
2022/09/16 12:41:54;;;;;;;7.82;4.90;;;;;;;;;;4998963;28;20499;-84
2022/09/16 12:44:55;;;;;;;6.72;4.35;;;;;;;;;;4996576;28;20045;-84
2022/09/16 12:47:42;;;;;;;7.20;4.30;;;;;;;;;;5016313;28;20026;-84
2022/09/16 12:50:43;;;;;;;5.90;4.30;;;;;;;;;;5018378;28;20054;-84
2022/09/16 12:53:30;;;;;;;5.97;3.90;;;;;;;;;;5017394;28;20042;-85
2022/09/16 12:56:05;;;;;;;5.75;3.50;;;;;;;;;;5017712;28;20084;-84
2022/09/16 12:58:52;;;;;;;4.93;3.20;;;;;;;;;;5018263;28;20100;-85
2022/09/16 13:01:28;;;;;;;5.80;3.40;;;;;;;;;;5017232;28;20414;-85
2022/09/16 13:03:58;;;;;;;6.35;3.60;;;;;;;;;;5017310;28;20091;-84
2022/09/16 13:06:30;;;;;;;4.88;3.10;;;;;;;;;;5016255;28;20038;-85
2022/09/16 13:09:14;;;;;;;6.72;3.50;;;;;;;;;;5017185;28;20034;-84
2022/09/16 13:11:40;;;;;;;4.20;3.20;;;;;;;;;;5014043;28;20038;-84
2022/09/16 13:14:21;;;;;;;5.00;3.15;;;;;;;;;;5014899;28;20033;-83
2022/09/16 13:16:58;;;;;;;9.63;4.10;;;;;;;;;;5017774;28;20041;-86
2022/09/16 13:19:32;;;;;;;7.65;2.67;;;;;;;;;;5005529;28;20037;-87
2022/09/16 13:22:19;;;;;;;3.92;1.80;;;;;;;;;;5003468;28;20041;-84
2022/09/16 13:24:51;;;;;;;2.60;1.27;;;;;;;;;;5001963;28;20038;-84
2022/09/16 13:27:25;;;;;;;4.35;1.40;;;;;;;;;;5005541;28;20102;-85
2022/09/16 13:29:50;;;;;;;3.78;1.13;;;;;;;;;;5008205;28;20049;-84
2022/09/16 13:32:56;;;;;;;2.47;1.15;;;;;;;;;;5002156;28;20030;-87
2022/09/16 13:35:43;;;;;;;4.00;1.40;;;;;;;;;;5007866;28;20030;-84
2022/09/16 13:38:18;;;;;;;4.22;2.40;;;;;;;;;;4991338;28;20038;-85
2022/09/16 13:41:00;;;;;;;5.07;3.08;;;;;;;;;;5008374;28;20037;-85
2022/09/16 13:43:41;;;;;;;7.63;4.78;;;;;;;;;;5013953;28;20033;-85
2022/09/16 13:46:24;;;;;;;7.63;4.75;;;;;;;;;;5022157;28;20041;-86
2022/09/16 13:48:56;;;;;;;5.72;4.32;;;;;;;;;;5020292;28;20033;-85
2022/09/16 13:51:22;;;;;;;7.43;4.30;;;;;;;;;;5021842;28;20040;-85
2022/09/16 13:53:50;;;;;;;7.32;5.75;;;;;;;;;;5021138;28;20080;-84
2022/09/16 13:56:19;;;;;;;8.98;6.00;;;;;;;;;;5021924;28;20556;-87
2022/09/16 13:58:58;;;;;;;9.50;5.50;;;;;;;;;;5023182;28;20066;-87
2022/09/16 14:01:43;;;;;;;6.63;4.68;;;;;;;;;;5024111;28;20052;-87
2022/09/16 14:04:15;;;;;;;6.10;3.90;;;;;;;;;;5021601;28;20049;-86
2022/09/16 14:07:03;;;;;;;5.25;3.42;;;;;;;;;;5022169;28;20479;-86
2022/09/16 14:09:48;;;;;;;4.45;3.25;;;;;;;;;;5020883;28;20073;-86
2022/09/16 14:12:26;;;;;;;5.22;3.38;;;;;;;;;;5018813;28;20096;-86
2022/09/16 14:14:52;;;;;;;3.72;3.20;;;;;;;;;;5020426;28;20087;-86
2022/09/16 14:17:24;;;;;;;5.07;3.00;;;;;;;;;;5020137;28;20108;-86
2022/09/16 14:19:57;;;;;;;6.07;3.03;;;;;;;;;;5021129;28;20037;-86
2022/09/16 14:22:25;;;;;;;5.93;3.17;;;;;;;;;;5021476;28;20038;-86
2022/09/16 14:24:51;;;;;;;5.88;3.28;;;;;;;;;;5020806;28;20034;-87
2022/09/16 14:27:18;;;;;;;4.95;2.90;;;;;;;;;;5020823;28;20530;-87
2022/09/16 14:29:57;;;;;;;3.97;2.90;;;;;;;;;;5019742;28;20040;-87
2022/09/16 14:32:25;;;;;;;6.50;2.70;;;;;;;;;;5019678;28;20030;-86
2022/09/16 14:34:52;;;;;;;3.97;2.38;;;;;;;;;;5004701;28;20022;-86
2022/09/16 14:37:19;;;;;;;3.70;2.53;;;;;;;;;;5002576;28;20061;-85
2022/09/16 14:39:45;;;;;;;4.05;2.45;;;;;;;;;;5002802;28;20041;-86
2022/09/16 14:42:17;;;;;;;4.43;2.50;;;;;;;;;;5003296;28;20034;-86
2022/09/16 14:44:57;;;;;;;2.60;2.10;;;;;;;;;;5003138;28;20045;-86
2022/09/16 14:47:31;;;;;;;3.15;2.20;;;;;;;;;;5005558;28;20034;-85
2022/09/16 14:50:04;;;;;;;3.67;2.17;;;;;;;;;;5012443;28;20042;-85
2022/09/16 14:52:31;;;;;;;3.70;1.90;;;;;;;;;;5005946;28;20038;-86
2022/09/16 14:54:57;;;;;;;3.70;2.17;;;;;;;;;;5004745;28;20022;-85
2022/09/16 14:57:28;;;;;;;3.35;1.92;;;;;;;;;;5005515;28;20030;-86
2022/09/16 15:00:07;;;;;;;3.28;1.98;;;;;;;;;;5001716;28;20061;-86
2022/09/16 15:02:42;;;;;;;3.47;1.92;;;;;;;;;;5003628;28;20065;-86
2022/09/16 15:05:23;;;;;;;3.65;2.05;;;;;;;;;;5001814;28;20041;-86
2022/09/16 15:07:50;;;;;;;2.30;1.70;;;;;;;;;;5002956;28;20030;-87
2022/09/16 15:10:29;;;;;;;3.33;1.73;;;;;;;;;;5000250;28;20018;-86
2022/09/16 15:12:57;;;;;;;3.45;1.88;;;;;;;;;;5003379;28;20030;-85
2022/09/16 15:15:26;;;;;;;7.00;2.10;;;;;;;;;;5002309;28;20034;-85
2022/09/16 15:17:55;;;;;;;5.10;1.92;;;;;;;;;;5003113;28;20035;-86
2022/09/16 15:20:24;;;;;;;4.47;1.92;;;;;;;;;;5002543;28;20101;-85